createdAt,value
2024-02-24T00:00:37.407Z,13.97
2024-02-24T00:03:05.131Z,13.86
2024-02-24T00:05:33.622Z,13.80
2024-02-24T00:08:00.676Z,13.72
2024-02-24T00:10:27.684Z,13.72
2024-02-24T00:13:13.042Z,13.70
2024-02-24T00:15:40.168Z,13.78
2024-02-24T00:18:07.260Z,13.85
2024-02-24T00:20:35.633Z,13.90
2024-02-24T00:23:02.764Z,13.87
2024-02-24T00:25:29.737Z,13.83
2024-02-24T00:27:56.796Z,13.83
2024-02-24T00:30:23.732Z,13.85
2024-02-24T00:32:50.771Z,13.86
2024-02-24T00:35:17.816Z,13.83
2024-02-24T00:37:46.104Z,13.80
2024-02-24T00:40:13.382Z,13.68
2024-02-24T00:42:40.408Z,13.62
2024-02-24T00:45:09.151Z,13.55
2024-02-24T00:47:36.147Z,13.56
2024-02-24T00:50:03.602Z,13.59
2024-02-24T00:52:32.309Z,13.58
2024-02-24T00:55:01.942Z,13.51
2024-02-24T00:57:28.845Z,13.48
2024-02-24T00:59:56.838Z,13.48
2024-02-24T01:02:23.795Z,13.42
2024-02-24T01:04:50.745Z,13.41
2024-02-24T01:07:17.694Z,13.42
2024-02-24T01:09:44.634Z,13.45
2024-02-24T01:12:13.264Z,13.42
2024-02-24T01:14:40.430Z,13.41
2024-02-24T01:17:07.468Z,13.39
2024-02-24T01:19:34.413Z,13.35
2024-02-24T01:22:01.391Z,13.25
2024-02-24T01:24:28.366Z,13.25
2024-02-24T01:26:55.284Z,13.19
2024-02-24T01:29:23.655Z,13.12
2024-02-24T01:31:50.625Z,13.11
2024-02-24T01:34:17.678Z,13.07
2024-02-24T01:36:44.608Z,12.95
2024-02-24T01:39:11.541Z,13.00
2024-02-24T01:41:38.562Z,13.01
2024-02-24T01:44:05.762Z,12.84
2024-02-24T01:46:34.286Z,12.79
2024-02-24T01:49:01.574Z,12.80
2024-02-24T01:51:28.825Z,12.74
2024-02-24T01:53:56.790Z,12.73
2024-02-24T01:56:26.115Z,12.77
2024-02-24T01:58:53.198Z,12.74
2024-02-24T02:01:20.648Z,12.74
2024-02-24T02:03:49.178Z,12.80
2024-02-24T02:06:16.383Z,12.79
2024-02-24T02:08:43.379Z,12.76
2024-02-24T02:11:11.475Z,12.74
2024-02-24T02:13:38.798Z,12.77
2024-02-24T02:16:06.707Z,12.80
2024-02-24T02:18:35.785Z,12.77
2024-02-24T02:21:06.319Z,12.79
2024-02-24T02:23:34.649Z,12.76
2024-02-24T02:26:01.792Z,12.64
2024-02-24T02:28:28.675Z,12.56
2024-02-24T02:30:56.870Z,12.50
2024-02-24T02:33:24.084Z,12.52
2024-02-24T02:35:51.166Z,12.52
2024-02-24T02:38:18.238Z,12.36
2024-02-24T02:40:46.601Z,12.45
2024-02-24T02:43:13.528Z,12.46
2024-02-24T02:45:40.505Z,12.43
2024-02-24T02:48:08.234Z,12.37
2024-02-24T02:50:35.300Z,12.40
2024-02-24T02:53:02.447Z,12.49
2024-02-24T02:55:29.472Z,12.61
2024-02-24T02:57:57.725Z,12.59
2024-02-24T03:00:24.644Z,12.60
2024-02-24T03:02:51.598Z,12.74
2024-02-24T03:05:18.929Z,12.79
2024-02-24T03:07:45.997Z,12.84
2024-02-24T03:10:13.253Z,12.90
2024-02-24T03:12:40.277Z,12.84
2024-02-24T03:15:09.520Z,12.79
2024-02-24T03:17:36.543Z,12.73
2024-02-24T03:20:05.300Z,12.72
2024-02-24T03:22:32.275Z,12.57
2024-02-24T03:24:59.167Z,12.52
2024-02-24T03:27:26.046Z,12.56
2024-02-24T03:29:53.019Z,12.36
2024-02-24T03:32:22.641Z,12.43
2024-02-24T03:34:49.633Z,12.47
2024-02-24T03:37:16.587Z,12.49
2024-02-24T03:39:43.504Z,12.59
2024-02-24T03:42:10.455Z,12.60
2024-02-24T03:44:37.363Z,12.50
2024-02-24T03:47:04.765Z,12.47
2024-02-24T03:49:33.073Z,12.46
2024-02-24T03:52:00.039Z,12.46
2024-02-24T03:54:26.968Z,12.50
2024-02-24T03:56:53.956Z,12.57
2024-02-24T03:59:21.111Z,12.59
2024-02-24T04:01:48.005Z,12.54
2024-02-24T04:04:15.051Z,12.43
2024-02-24T04:06:44.839Z,12.47
2024-02-24T04:09:11.887Z,12.39
2024-02-24T04:11:38.925Z,12.40
2024-02-24T04:14:06.159Z,12.42
2024-02-24T04:16:33.148Z,12.40
2024-02-24T04:19:01.011Z,12.39
2024-02-24T04:21:28.026Z,12.45
2024-02-24T04:23:56.950Z,12.45
2024-02-24T04:26:24.025Z,12.42
2024-02-24T04:28:50.983Z,12.45
2024-02-24T04:31:17.946Z,12.45
2024-02-24T04:33:45.091Z,12.49
2024-02-24T04:36:12.222Z,12.42
2024-02-24T04:38:39.265Z,12.46
2024-02-24T04:41:07.705Z,12.50
2024-02-24T04:43:37.073Z,12.52
2024-02-24T04:46:04.812Z,12.53
2024-02-24T04:48:31.874Z,12.59
2024-02-24T04:51:02.725Z,12.49
2024-02-24T04:53:30.462Z,12.56
2024-02-24T04:55:57.369Z,12.64
2024-02-24T04:58:25.738Z,12.77
2024-02-24T05:00:52.763Z,12.81
2024-02-24T05:03:19.723Z,12.77
2024-02-24T05:05:46.717Z,12.81
2024-02-24T05:08:13.911Z,12.74
2024-02-24T05:10:40.908Z,12.76
2024-02-24T05:13:07.817Z,12.76
2024-02-24T05:15:36.088Z,12.77
2024-02-24T05:18:03.467Z,12.77
2024-02-24T05:20:30.568Z,12.76
2024-02-24T05:22:57.599Z,12.73
2024-02-24T05:25:24.506Z,12.72
2024-02-24T05:27:51.380Z,12.68
2024-02-24T05:30:18.341Z,12.66
2024-02-24T05:32:46.663Z,12.70
2024-02-24T05:35:14.027Z,12.68
2024-02-24T05:37:41.777Z,12.74
2024-02-24T05:40:10.293Z,12.80
2024-02-24T05:42:37.255Z,12.84
2024-02-24T05:45:05.140Z,12.86
2024-02-24T05:47:32.196Z,12.81
2024-02-24T05:50:00.506Z,12.72
2024-02-24T05:52:27.498Z,12.68
2024-02-24T05:54:54.392Z,12.50
2024-02-24T05:57:21.238Z,12.28
2024-02-24T05:59:48.237Z,12.19
2024-02-24T06:02:15.231Z,12.13
2024-02-24T06:04:42.139Z,12.08
2024-02-24T06:07:10.457Z,12.02
2024-02-24T06:09:37.371Z,12.02
2024-02-24T06:12:05.821Z,11.98
2024-02-24T06:14:32.730Z,11.92
2024-02-24T06:16:59.696Z,12.06
2024-02-24T06:19:26.813Z,12.13
2024-02-24T06:21:53.859Z,12.28
2024-02-24T06:24:22.139Z,12.40
2024-02-24T06:26:49.126Z,12.49
2024-02-24T06:29:16.155Z,12.63
2024-02-24T06:31:43.110Z,12.76
2024-02-24T06:34:10.191Z,12.83
2024-02-24T06:36:37.276Z,12.86
2024-02-24T06:39:04.366Z,12.90
2024-02-24T06:41:32.656Z,12.90
2024-02-24T06:43:59.669Z,12.90
2024-02-24T06:46:26.667Z,12.94
2024-02-24T06:48:53.668Z,12.98
2024-02-24T06:51:20.616Z,13.05
2024-02-24T06:53:47.628Z,13.05
2024-02-24T06:56:14.876Z,13.07
2024-02-24T06:58:43.129Z,13.11
2024-02-24T07:01:10.179Z,13.14
2024-02-24T07:03:37.451Z,13.10
2024-02-24T07:06:05.486Z,13.14
2024-02-24T07:08:32.500Z,13.12
2024-02-24T07:10:59.508Z,13.07
2024-02-24T07:13:26.422Z,12.81
2024-02-24T07:15:54.693Z,12.83
2024-02-24T07:18:21.647Z,12.80
2024-02-24T07:20:48.688Z,12.63
2024-02-24T07:23:15.784Z,12.43
2024-02-24T07:25:42.785Z,12.39
2024-02-24T07:28:09.788Z,12.50
2024-02-24T07:30:36.760Z,12.50
2024-02-24T07:33:05.747Z,12.49
2024-02-24T07:35:32.831Z,12.56
2024-02-24T07:37:59.784Z,12.64
2024-02-24T07:40:26.732Z,12.70
2024-02-24T07:42:53.723Z,12.61
2024-02-24T07:45:20.654Z,12.61
2024-02-24T07:47:47.652Z,12.83
2024-02-24T07:50:16.436Z,12.73
2024-02-24T07:52:44.871Z,12.76
2024-02-24T07:55:31.869Z,12.52
2024-02-24T07:57:59.046Z,12.53
2024-02-24T08:00:26.185Z,12.63
2024-02-24T08:02:53.169Z,12.54
2024-02-24T08:05:21.511Z,12.66
2024-02-24T08:07:48.400Z,12.91
2024-02-24T08:10:15.528Z,13.14
2024-02-24T08:12:42.582Z,13.32
2024-02-24T08:15:10.657Z,13.51
2024-02-24T08:17:37.651Z,13.70
2024-02-24T08:20:06.461Z,13.83
2024-02-24T08:22:34.771Z,13.76
2024-02-24T08:25:01.922Z,13.76
2024-02-24T08:27:28.850Z,13.70
2024-02-24T08:29:55.984Z,13.65
2024-02-24T08:32:22.905Z,13.83
2024-02-24T08:34:49.825Z,13.87
2024-02-24T08:37:16.742Z,13.87
2024-02-24T08:39:45.060Z,13.76
2024-02-24T08:42:12.090Z,13.73
2024-02-24T08:44:39.096Z,13.87
2024-02-24T08:47:06.624Z,13.80
2024-02-24T08:49:33.569Z,13.87
2024-02-24T08:52:00.494Z,13.87
2024-02-24T08:54:27.430Z,13.99
2024-02-24T08:56:55.737Z,13.70
2024-02-24T08:59:22.781Z,13.85
2024-02-24T09:01:52.662Z,13.79
2024-02-24T09:04:19.682Z,13.61
2024-02-24T09:06:47.022Z,13.76
2024-02-24T09:09:14.108Z,13.73
2024-02-24T09:11:41.255Z,13.78
2024-02-24T09:14:12.007Z,13.65
2024-02-24T09:16:39.072Z,13.72
2024-02-24T09:19:06.241Z,13.65
2024-02-24T09:21:33.254Z,13.83
2024-02-24T09:24:00.263Z,13.79
2024-02-24T09:26:27.553Z,13.87
2024-02-24T09:28:54.512Z,13.99
2024-02-24T09:31:23.926Z,13.95
2024-02-24T09:33:51.210Z,14.23
2024-02-24T09:36:18.165Z,14.40
2024-02-24T09:38:45.124Z,14.41
2024-02-24T09:41:12.368Z,14.26
2024-02-24T09:43:40.169Z,14.38
2024-02-24T09:46:08.053Z,14.30
2024-02-24T09:48:36.449Z,14.47
2024-02-24T09:51:03.969Z,14.48
2024-02-24T09:53:31.076Z,14.60
2024-02-24T09:55:59.555Z,14.65
2024-02-24T09:58:31.346Z,14.68
2024-02-24T10:00:58.370Z,14.68
2024-02-24T10:03:26.283Z,14.70
2024-02-24T10:05:54.855Z,14.82
2024-02-24T10:08:21.964Z,14.89
2024-02-24T10:10:48.894Z,15.02
2024-02-24T10:13:18.512Z,15.28
2024-02-24T10:15:45.412Z,15.38
2024-02-24T10:18:12.457Z,15.57
2024-02-24T10:20:40.874Z,15.71
2024-02-24T10:23:12.335Z,16.04
2024-02-24T10:25:39.292Z,16.22
2024-02-24T10:28:07.151Z,16.34
2024-02-24T10:30:34.145Z,16.63
2024-02-24T10:33:02.014Z,16.99
2024-02-24T10:35:30.170Z,17.37
2024-02-24T10:38:11.280Z,17.57
2024-02-24T10:40:48.698Z,18.08
2024-02-24T10:43:16.497Z,18.45
2024-02-24T10:45:43.866Z,18.57
2024-02-24T10:48:11.036Z,18.83
2024-02-24T10:50:38.301Z,19.12
2024-02-24T10:53:07.539Z,19.24
2024-02-24T10:55:38.693Z,19.42
2024-02-24T10:58:07.175Z,19.55
2024-02-24T11:00:34.739Z,19.82
2024-02-24T11:03:04.675Z,20.12
2024-02-24T11:05:33.889Z,20.34
2024-02-24T11:08:02.038Z,20.51
2024-02-24T11:10:33.835Z,20.47
2024-02-24T11:13:02.777Z,20.55
2024-02-24T11:15:31.248Z,20.68
2024-02-24T11:17:58.390Z,20.77
2024-02-24T11:20:53.915Z,20.78
2024-02-24T11:23:22.607Z,20.37
2024-02-24T11:26:10.523Z,20.31
2024-02-24T11:28:38.177Z,19.80
2024-02-24T11:31:07.906Z,19.55
2024-02-24T11:33:36.241Z,19.25
2024-02-24T11:36:05.422Z,19.21
2024-02-24T11:38:33.827Z,18.93
2024-02-24T11:41:04.959Z,19.00
2024-02-24T11:43:32.183Z,19.08
2024-02-24T11:46:00.400Z,19.01
2024-02-24T11:48:28.787Z,18.96
2024-02-24T11:50:56.505Z,18.87
2024-02-24T11:53:24.765Z,18.68
2024-02-24T11:55:51.944Z,18.49
2024-02-24T11:58:19.036Z,18.52
2024-02-24T12:00:46.279Z,18.77
2024-02-24T12:03:15.339Z,18.73
2024-02-24T12:05:44.290Z,19.04
2024-02-24T12:08:16.415Z,19.28
2024-02-24T12:10:43.979Z,19.35
2024-02-24T12:13:12.798Z,19.35
2024-02-24T12:15:41.201Z,19.44
2024-02-24T12:18:09.184Z,19.35
2024-02-24T12:20:37.233Z,19.44
2024-02-24T12:23:06.677Z,19.36
2024-02-24T12:25:34.509Z,19.18
2024-02-24T12:28:02.746Z,19.08
2024-02-24T12:30:36.039Z,18.98
2024-02-24T12:33:06.667Z,18.93
2024-02-24T12:35:34.162Z,18.80
2024-02-24T12:38:02.481Z,18.64
2024-02-24T12:40:32.193Z,18.32
2024-02-24T12:43:01.175Z,18.37
2024-02-24T12:45:28.697Z,18.47
2024-02-24T12:47:56.124Z,18.52
2024-02-24T12:50:24.729Z,18.15
2024-02-24T12:52:53.278Z,18.06
2024-02-24T12:55:20.704Z,17.84
2024-02-24T12:57:49.188Z,17.60
2024-02-24T13:00:17.183Z,17.44
2024-02-24T13:02:44.251Z,17.26
2024-02-24T13:05:11.319Z,17.24
2024-02-24T13:07:38.341Z,17.13
2024-02-24T13:10:06.040Z,17.24
2024-02-24T13:12:33.176Z,17.34
2024-02-24T13:15:01.649Z,17.37
2024-02-24T13:17:28.891Z,17.33
2024-02-24T13:19:55.809Z,17.38
2024-02-24T13:22:22.811Z,17.45
2024-02-24T13:24:49.748Z,17.61
2024-02-24T13:27:16.716Z,17.79
2024-02-24T13:29:43.735Z,17.98
2024-02-24T13:32:12.221Z,18.06
2024-02-24T13:34:39.406Z,18.06
2024-02-24T13:37:08.594Z,18.06
2024-02-24T13:39:35.700Z,17.99
2024-02-24T13:42:02.812Z,18.04
2024-02-24T13:44:29.920Z,18.10
2024-02-24T13:46:56.897Z,18.16
2024-02-24T13:49:25.295Z,18.13
2024-02-24T13:51:52.245Z,18.02
2024-02-24T13:54:19.233Z,17.89
2024-02-24T13:56:47.636Z,17.91
2024-02-24T13:59:14.782Z,17.94
2024-02-24T14:01:41.776Z,17.92
2024-02-24T14:04:08.840Z,18.04
2024-02-24T14:06:39.520Z,18.08
2024-02-24T14:09:06.738Z,18.10
2024-02-24T14:11:34.000Z,18.04
2024-02-24T14:14:01.110Z,17.98
2024-02-24T14:16:28.427Z,17.98
2024-02-24T14:18:55.614Z,17.85
2024-02-24T14:21:23.408Z,17.77
2024-02-24T14:23:52.176Z,17.64
2024-02-24T14:26:21.816Z,17.61
2024-02-24T14:28:55.892Z,17.53
2024-02-24T14:31:27.797Z,17.48
2024-02-24T14:33:54.839Z,17.55
2024-02-24T14:36:21.816Z,17.64
2024-02-24T14:38:48.806Z,17.74
2024-02-24T14:41:17.239Z,17.88
2024-02-24T14:43:44.244Z,17.81
2024-02-24T14:46:11.516Z,17.86
2024-02-24T14:48:38.703Z,17.96
2024-02-24T14:51:06.337Z,17.98
2024-02-24T14:53:33.330Z,17.77
2024-02-24T14:56:00.391Z,17.50
2024-02-24T14:58:28.849Z,17.40
2024-02-24T15:00:55.871Z,17.31
2024-02-24T15:03:23.038Z,17.28
2024-02-24T15:05:50.132Z,17.37
2024-02-24T15:08:17.298Z,17.48
2024-02-24T15:10:44.393Z,17.50
2024-02-24T15:13:13.812Z,17.54
2024-02-24T15:15:43.116Z,17.07
2024-02-24T15:18:10.238Z,16.73
2024-02-24T15:20:37.258Z,16.53
2024-02-24T15:23:04.545Z,16.56
2024-02-24T15:25:31.700Z,16.56
2024-02-24T15:27:58.724Z,16.63
2024-02-24T15:30:25.667Z,16.69
2024-02-24T15:32:54.036Z,16.61
2024-02-24T15:35:21.315Z,16.65
2024-02-24T15:37:48.419Z,16.62
2024-02-24T15:40:15.441Z,16.69
2024-02-24T15:42:42.404Z,16.69
2024-02-24T15:47:36.753Z,16.63
2024-02-24T15:50:06.504Z,16.76
2024-02-24T15:52:33.446Z,16.82
2024-02-24T15:55:00.389Z,16.87
2024-02-24T15:57:27.260Z,16.93
2024-02-24T15:59:54.298Z,16.97
2024-02-24T16:02:21.322Z,16.97
2024-02-24T16:04:48.285Z,16.97
2024-02-24T16:07:16.725Z,17.00
2024-02-24T16:09:43.646Z,16.96
2024-02-24T16:12:10.703Z,16.86
2024-02-24T16:14:37.998Z,16.89
2024-02-24T16:17:05.288Z,16.93
2024-02-24T16:19:32.276Z,16.77
2024-02-24T16:21:59.215Z,16.61
2024-02-24T16:24:30.090Z,16.12
2024-02-24T16:26:58.039Z,15.30
2024-02-24T16:29:25.098Z,14.71
2024-02-24T16:31:52.056Z,14.38
2024-02-24T16:34:19.153Z,14.14
2024-02-24T16:36:46.157Z,13.99
2024-02-24T16:39:13.065Z,13.68
2024-02-24T16:41:41.720Z,13.55
2024-02-24T16:44:10.071Z,13.42
2024-02-24T16:46:42.637Z,13.52
2024-02-24T16:49:09.753Z,13.31
2024-02-24T16:51:36.766Z,13.24
2024-02-24T16:54:03.864Z,13.44
2024-02-24T16:56:30.859Z,13.55
2024-02-24T16:58:59.153Z,13.56
2024-02-24T17:01:26.032Z,13.62
2024-02-24T17:03:53.017Z,13.37
2024-02-24T17:06:20.196Z,12.81
2024-02-24T17:08:47.312Z,12.83
2024-02-24T17:11:18.982Z,12.94
2024-02-24T17:13:46.032Z,13.04
2024-02-24T17:16:14.428Z,12.97
2024-02-24T17:18:41.472Z,13.17
2024-02-24T17:21:08.825Z,13.21
2024-02-24T17:23:35.882Z,13.34
2024-02-24T17:26:02.863Z,13.55
2024-02-24T17:28:29.821Z,13.62
2024-02-24T17:30:56.771Z,13.69
2024-02-24T17:33:25.035Z,13.73
2024-02-24T17:35:52.064Z,13.79
2024-02-24T17:38:19.079Z,13.80
2024-02-24T17:40:46.906Z,13.95
2024-02-24T17:43:14.656Z,14.06
2024-02-24T17:45:41.556Z,14.12
2024-02-24T17:48:09.382Z,14.20
2024-02-24T17:50:37.894Z,14.27
2024-02-24T17:53:05.063Z,14.24
2024-02-24T17:55:32.049Z,14.23
2024-02-24T17:57:59.047Z,14.26
2024-02-24T18:00:26.035Z,14.23
2024-02-24T18:02:53.293Z,14.17
2024-02-24T18:05:20.454Z,14.12
2024-02-24T18:07:48.856Z,14.10
2024-02-24T18:10:16.702Z,14.10
2024-02-24T18:12:43.669Z,14.07
2024-02-24T18:15:11.319Z,14.00
2024-02-24T18:17:38.747Z,13.93
2024-02-24T18:20:07.740Z,13.89
2024-02-24T18:22:35.029Z,13.76
2024-02-24T18:25:03.975Z,13.56
2024-02-24T18:27:31.159Z,13.54
2024-02-24T18:30:00.393Z,13.39
2024-02-24T18:32:28.779Z,13.21
2024-02-24T18:34:55.844Z,13.24
2024-02-24T18:37:23.004Z,13.12
2024-02-24T18:39:49.952Z,13.10
2024-02-24T18:42:18.475Z,13.21
2024-02-24T18:44:45.719Z,13.21
2024-02-24T18:47:12.676Z,13.19
2024-02-24T18:49:39.786Z,13.12
2024-02-24T18:52:06.840Z,12.88
2024-02-24T18:54:35.942Z,13.04
2024-02-24T18:57:03.127Z,12.94
2024-02-24T18:59:31.519Z,12.84
2024-02-24T19:01:58.443Z,12.64
2024-02-24T19:04:25.422Z,12.77
2024-02-24T19:06:52.406Z,12.74
2024-02-24T19:09:19.384Z,12.70
2024-02-24T19:11:46.380Z,12.59
2024-02-24T19:14:13.423Z,12.67
2024-02-24T19:16:41.761Z,12.66
2024-02-24T19:19:08.917Z,12.74
2024-02-24T19:21:36.034Z,12.70
2024-02-24T19:24:03.268Z,12.73
2024-02-24T19:26:30.253Z,12.67
2024-02-24T19:28:57.172Z,12.72
2024-02-24T19:31:24.076Z,12.52
2024-02-24T19:33:52.485Z,12.52
2024-02-24T19:36:19.544Z,12.57
2024-02-24T19:38:46.571Z,12.68
2024-02-24T19:41:13.602Z,12.72
2024-02-24T19:43:40.534Z,12.64
2024-02-24T19:46:07.560Z,12.66
2024-02-24T19:48:34.642Z,12.74
2024-02-24T19:51:03.195Z,12.67
2024-02-24T19:53:30.161Z,12.43
2024-02-24T19:55:57.085Z,12.50
2024-02-24T19:58:32.911Z,12.36
2024-02-24T20:01:02.193Z,12.39
2024-02-24T20:03:29.060Z,12.40
2024-02-24T20:05:56.073Z,12.33
2024-02-24T20:08:24.413Z,12.32
2024-02-24T20:10:51.679Z,12.29
2024-02-24T20:13:18.586Z,12.19
2024-02-24T20:15:45.422Z,12.26
2024-02-24T20:18:12.370Z,12.33
2024-02-24T20:20:39.453Z,12.35
2024-02-24T20:23:06.412Z,12.06
2024-02-24T20:25:34.648Z,12.08
2024-02-24T20:28:01.500Z,12.23
2024-02-24T20:30:28.386Z,12.05
2024-02-24T20:32:55.437Z,12.21
2024-02-24T20:35:22.547Z,12.26
2024-02-24T20:37:49.868Z,12.29
2024-02-24T20:40:16.983Z,12.39
2024-02-24T20:42:45.216Z,12.36
2024-02-24T20:45:12.789Z,12.40
2024-02-24T20:47:39.862Z,12.54
2024-02-24T20:50:07.827Z,12.52
2024-02-24T20:52:34.789Z,12.49
2024-02-24T20:55:01.696Z,12.59
2024-02-24T20:57:28.596Z,12.63
2024-02-24T20:59:56.990Z,12.63
2024-02-24T21:02:23.912Z,12.50
2024-02-24T21:04:50.890Z,12.61
2024-02-24T21:07:17.795Z,12.70
2024-02-24T21:09:44.647Z,12.90
2024-02-24T21:12:11.533Z,13.04
2024-02-24T21:14:38.614Z,13.08
2024-02-24T21:17:07.029Z,13.04
2024-02-24T21:19:33.922Z,12.98
2024-02-24T21:22:00.839Z,12.98
2024-02-24T21:24:27.745Z,12.87
2024-02-24T21:26:54.628Z,12.67
2024-02-24T21:29:21.582Z,12.70
2024-02-24T21:31:51.114Z,12.72
2024-02-24T21:34:21.083Z,12.59
2024-02-24T21:36:48.065Z,12.23
2024-02-24T21:39:15.079Z,12.35
2024-02-24T21:41:42.046Z,12.12
2024-02-24T21:44:08.965Z,12.15
2024-02-24T21:46:35.850Z,11.84
2024-02-24T21:49:03.039Z,12.05
2024-02-24T21:51:31.531Z,12.11
2024-02-24T21:53:58.501Z,12.21
2024-02-24T21:56:25.481Z,12.18
2024-02-24T21:58:52.385Z,12.05
2024-02-24T22:01:19.435Z,11.91
2024-02-24T22:03:46.556Z,11.89
2024-02-24T22:06:13.764Z,11.98
2024-02-24T22:08:42.143Z,11.75
2024-02-24T22:11:09.266Z,11.96
2024-02-24T22:13:36.189Z,12.04
2024-02-24T22:16:03.213Z,11.88
2024-02-24T22:18:30.265Z,11.94
2024-02-24T22:20:57.311Z,11.96
2024-02-24T22:23:24.288Z,12.11
2024-02-24T22:25:52.627Z,12.22
2024-02-24T22:28:19.591Z,12.22
2024-02-24T22:30:46.547Z,12.25
2024-02-24T22:33:13.737Z,12.13
2024-02-24T22:35:42.597Z,12.18
2024-02-24T22:38:09.721Z,12.16
2024-02-24T22:40:36.829Z,11.98
2024-02-24T22:43:05.308Z,12.09
2024-02-24T22:45:32.332Z,12.29
2024-02-24T22:47:59.456Z,12.36
2024-02-24T22:50:26.673Z,12.40
2024-02-24T22:52:53.814Z,12.54
2024-02-24T22:55:20.678Z,12.46
2024-02-24T22:57:47.666Z,12.52
2024-02-24T23:12:06.176Z,12.46
2024-02-24T23:31:50.705Z,12.23
2024-02-24T23:37:32.287Z,12.46
2024-02-24T23:40:09.308Z,12.16
2024-02-24T23:45:37.565Z,12.37
2024-02-24T23:54:18.329Z,12.50
2024-02-24T23:56:45.988Z,12.37
2024-02-24T23:59:13.453Z,12.36
